KLWM

Lawrence Municipal Airport

Lawrence, Massachusetts, USA
METAR KLWM 190254Z 24003KT 10SM CLR M04/M09 A2995 RMK AO2 SLP145 T10441089 53010
Observed Flight Rules
Jan-19 @ 02:54 UTC (49 minutes ago) Visual Flight Rules
Wind Visibility Clouds
240° at 3 knots 10 miles
  • Clear skies
Temperatures Readings
Current -4°C / 25°F
Dewpoint -9°C / 16°F
Humidity 69%
Altimeter 29.95" Hg
Pressure 1014.5 hPa
Elevation 54
METAR KLWM 190254Z 24003KT 10SM CLR M04/M09 A2995 RMK AO2 SLP145 T10441089 53010
Observed Flight Rules
Jan-19 @ 02:54 UTC
(49 minutes ago)
VFR
Wind Visibility
240° at 3 knots 10 miles
Clouds
  • Clear skies
Temperature Dewpoint
-4°C / 25°F -9°C / 16°F
Humidity Altimeter Pressure
69% 29.95" Hg 1014.5 hPa